createdAt,value
2019-04-20T00:00:51.041Z,12.60
2019-04-20T00:03:18.275Z,12.60
2019-04-20T00:05:48.943Z,12.60
2019-04-20T00:08:23.180Z,12.60
2019-04-20T00:10:58.342Z,12.50
2019-04-20T00:13:33.286Z,12.50
2019-04-20T00:15:55.703Z,12.50
2019-04-20T00:18:32.907Z,12.50
2019-04-20T00:21:18.045Z,12.50
2019-04-20T00:23:51.455Z,12.40
2019-04-20T00:27:00.670Z,12.40
2019-04-20T00:29:21.625Z,12.40
2019-04-20T00:31:45.743Z,12.30
2019-04-20T00:34:14.090Z,12.40
2019-04-20T00:39:27.837Z,12.30
2019-04-20T00:42:03.487Z,12.30
2019-04-20T00:44:35.922Z,12.30
2019-04-20T00:47:14.440Z,12.30
2019-04-20T00:49:45.428Z,12.20
2019-04-20T00:52:27.503Z,12.20
2019-04-20T00:54:37.023Z,12.20
2019-04-20T00:57:17.689Z,12.20
2019-04-20T01:00:03.580Z,12.20
2019-04-20T01:02:26.163Z,12.20
2019-04-20T01:05:04.467Z,12.10
2019-04-20T01:07:33.933Z,12.10
2019-04-20T01:10:05.090Z,12.10
2019-04-20T01:12:38.780Z,12.00
2019-04-20T01:15:13.178Z,12.00
2019-04-20T01:17:41.811Z,12.00
2019-04-20T01:20:12.866Z,11.90
2019-04-20T01:22:51.547Z,12.00
2019-04-20T01:25:22.114Z,12.00
2019-04-20T01:28:06.739Z,11.90
2019-04-20T01:30:28.361Z,12.00
2019-04-20T01:33:06.164Z,12.00
2019-04-20T01:35:39.427Z,11.90
2019-04-20T01:38:12.577Z,11.90
2019-04-20T01:40:27.499Z,11.90
2019-04-20T01:42:57.622Z,11.80
2019-04-20T01:45:32.845Z,11.80
2019-04-20T01:48:01.767Z,11.80
2019-04-20T01:50:35.351Z,11.80
2019-04-20T01:53:12.519Z,11.70
2019-04-20T01:55:50.709Z,11.70
2019-04-20T01:58:50.581Z,11.60
2019-04-20T02:01:09.805Z,11.50
2019-04-20T02:03:45.202Z,11.50
2019-04-20T02:06:18.292Z,11.40
2019-04-20T02:08:46.323Z,11.40
2019-04-20T02:11:23.043Z,11.40
2019-04-20T02:13:56.236Z,11.30
2019-04-20T02:16:28.890Z,11.30
2019-04-20T02:19:10.923Z,11.20
2019-04-20T02:21:38.611Z,11.20
2019-04-20T02:24:00.807Z,11.20
2019-04-20T02:26:28.196Z,11.10
2019-04-20T02:29:25.075Z,11.10
2019-04-20T02:32:12.093Z,11.00
2019-04-20T02:34:49.552Z,10.90
2019-04-20T02:40:27.049Z,11.00
2019-04-20T02:42:44.636Z,10.90
2019-04-20T02:45:17.395Z,10.90
2019-04-20T02:47:47.286Z,10.80
2019-04-20T02:52:56.892Z,10.80
2019-04-20T02:55:33.943Z,10.70
2019-04-20T03:00:25.438Z,10.70
2019-04-20T03:02:43.029Z,10.70
2019-04-20T03:05:16.461Z,10.60
2019-04-20T03:07:58.611Z,10.60
2019-04-20T03:10:34.279Z,10.60
2019-04-20T03:13:05.350Z,10.60
2019-04-20T03:15:32.758Z,10.60
2019-04-20T03:20:45.973Z,10.60
2019-04-20T03:26:06.460Z,10.50
2019-04-20T03:29:01.359Z,10.50
2019-04-20T03:32:14.983Z,10.40
2019-04-20T03:37:05.050Z,10.30
2019-04-20T03:39:23.333Z,10.30
2019-04-20T03:41:46.643Z,10.30
2019-04-20T03:44:18.237Z,10.30
2019-04-20T03:46:52.299Z,10.20
2019-04-20T03:49:42.228Z,10.20
2019-04-20T03:52:23.427Z,10.10
2019-04-20T03:55:17.094Z,10.10
2019-04-20T03:58:14.244Z,10.00
2019-04-20T04:00:55.698Z,10.00
2019-04-20T04:03:42.498Z,10.00
2019-04-20T04:06:09.604Z,10.00
2019-04-20T04:08:37.335Z,10.00
2019-04-20T04:11:21.072Z,10.00
2019-04-20T04:13:33.663Z,9.90
2019-04-20T04:16:08.761Z,9.90
2019-04-20T04:18:41.020Z,9.90
2019-04-20T04:21:11.412Z,9.90
2019-04-20T04:23:56.076Z,9.90
2019-04-20T04:26:27.466Z,9.90
2019-04-20T04:29:02.740Z,9.90
2019-04-20T04:31:33.196Z,9.90
2019-04-20T04:34:02.367Z,9.90
2019-04-20T04:36:35.927Z,9.90
2019-04-20T04:39:28.004Z,9.90
2019-04-20T04:41:43.890Z,9.80
2019-04-20T04:44:09.926Z,9.90
2019-04-20T04:46:25.174Z,9.90
2019-04-20T04:49:06.827Z,9.90
2019-04-20T04:51:38.568Z,10.00
2019-04-20T04:54:10.127Z,10.00
2019-04-20T04:56:32.017Z,10.00
2019-04-20T04:59:02.590Z,10.00
2019-04-20T05:01:35.594Z,10.00
2019-04-20T05:04:40.490Z,10.10
2019-04-20T05:06:53.577Z,10.20
2019-04-20T05:09:12.527Z,10.20
2019-04-20T05:11:40.658Z,10.20
2019-04-20T05:14:18.656Z,10.30
2019-04-20T05:16:58.212Z,10.40
2019-04-20T05:19:38.390Z,10.40
2019-04-20T05:22:22.998Z,10.50
2019-04-20T05:25:07.098Z,10.60
2019-04-20T05:27:51.283Z,10.60
2019-04-20T05:30:07.688Z,10.70
2019-04-20T05:32:48.036Z,10.80
2019-04-20T05:35:30.954Z,10.80
2019-04-20T05:38:08.822Z,10.90
2019-04-20T05:40:32.783Z,11.00
2019-04-20T05:43:17.689Z,11.10
2019-04-20T05:45:45.097Z,11.20
2019-04-20T05:48:19.690Z,11.30
2019-04-20T05:50:52.847Z,11.40
2019-04-20T05:53:30.562Z,11.50
2019-04-20T05:56:00.942Z,11.60
2019-04-20T05:58:34.413Z,11.70
2019-04-20T06:01:06.757Z,11.80
2019-04-20T06:03:38.102Z,11.90
2019-04-20T06:06:10.560Z,12.00
2019-04-20T06:08:51.102Z,12.10
2019-04-20T06:11:17.856Z,12.20
2019-04-20T06:14:03.760Z,12.30
2019-04-20T06:17:11.162Z,12.40
2019-04-20T06:19:39.735Z,12.60
2019-04-20T06:22:36.466Z,12.70
2019-04-20T06:25:31.328Z,12.90
2019-04-20T06:27:45.074Z,13.00
2019-04-20T06:30:16.185Z,13.20
2019-04-20T06:33:45.108Z,13.20
2019-04-20T06:36:13.949Z,13.40
2019-04-20T06:38:53.958Z,13.50
2019-04-20T06:41:32.682Z,13.60
2019-04-20T06:43:41.177Z,13.70
2019-04-20T06:46:11.583Z,13.90
2019-04-20T06:48:42.543Z,14.00
2019-04-20T06:51:09.198Z,14.10
2019-04-20T06:53:47.071Z,14.30
2019-04-20T06:56:29.489Z,14.40
2019-04-20T06:59:21.419Z,14.60
2019-04-20T07:01:42.322Z,14.70
2019-04-20T07:04:37.713Z,14.80
2019-04-20T07:06:50.198Z,14.90
2019-04-20T07:09:21.698Z,15.00
2019-04-20T07:11:47.696Z,15.30
2019-04-20T07:14:07.552Z,15.50
2019-04-20T07:16:59.910Z,15.80
2019-04-20T07:19:40.523Z,16.70
2019-04-20T07:27:22.595Z,24.70
2019-04-20T07:29:58.975Z,27.10
2019-04-20T07:32:17.905Z,28.10
2019-04-20T07:35:06.320Z,29.20
2019-04-20T07:40:10.423Z,30.60
2019-04-20T07:42:42.516Z,31.80
2019-04-20T07:45:19.913Z,30.50
2019-04-20T07:47:46.504Z,30.20
2019-04-20T07:50:08.644Z,30.80
2019-04-20T07:52:39.698Z,31.30
2019-04-20T07:55:32.991Z,31.70
2019-04-20T07:57:45.990Z,31.50
2019-04-20T08:00:26.136Z,31.80
2019-04-20T08:03:29.570Z,31.40
2019-04-20T08:06:05.322Z,31.10
2019-04-20T08:08:43.790Z,30.10
2019-04-20T08:11:17.950Z,30.50
2019-04-20T08:13:53.412Z,30.40
2019-04-20T08:16:31.101Z,31.10
2019-04-20T08:18:54.061Z,31.20
2019-04-20T08:21:29.828Z,31.30
2019-04-20T08:23:58.164Z,31.20
2019-04-20T08:26:18.216Z,31.10
2019-04-20T08:28:55.253Z,30.80
2019-04-20T08:31:49.029Z,30.70
2019-04-20T08:34:31.295Z,31.10
2019-04-20T08:37:01.403Z,31.80
2019-04-20T08:39:45.142Z,31.80
2019-04-20T08:42:06.319Z,31.60
2019-04-20T08:44:53.751Z,31.50
2019-04-20T08:47:21.634Z,31.50
2019-04-20T08:50:11.997Z,32.10
2019-04-20T08:52:58.604Z,32.00
2019-04-20T08:55:05.387Z,32.40
2019-04-20T08:57:17.905Z,32.20
2019-04-20T08:59:50.768Z,32.20
2019-04-20T09:02:20.713Z,31.90
2019-04-20T09:05:00.616Z,32.30
2019-04-20T09:07:26.968Z,32.40
2019-04-20T09:10:22.530Z,32.90
2019-04-20T09:12:39.510Z,32.50
2019-04-20T09:14:59.425Z,32.00
2019-04-20T09:17:47.427Z,31.50
2019-04-20T09:20:26.968Z,31.90
2019-04-20T09:23:08.210Z,32.40
2019-04-20T09:28:23.925Z,31.70
2019-04-20T09:30:54.297Z,32.00
2019-04-20T09:33:51.400Z,32.10
2019-04-20T09:36:29.197Z,31.70
2019-04-20T09:39:21.620Z,31.80
2019-04-20T09:42:00.727Z,32.10
2019-04-20T09:44:31.486Z,31.80
2019-04-20T09:47:00.438Z,31.70
2019-04-20T09:49:42.857Z,32.20
2019-04-20T09:52:17.041Z,32.30
2019-04-20T09:54:51.111Z,31.90
2019-04-20T09:57:25.541Z,31.30
2019-04-20T09:59:57.482Z,30.30
2019-04-20T10:02:18.848Z,31.20
2019-04-20T10:04:42.248Z,31.80
2019-04-20T10:07:17.631Z,31.50
2019-04-20T10:09:45.604Z,31.90
2019-04-20T10:12:17.515Z,31.70
2019-04-20T10:14:48.949Z,31.10
2019-04-20T10:17:20.230Z,31.40
2019-04-20T10:19:51.418Z,31.40
2019-04-20T10:22:22.560Z,31.20
2019-04-20T10:24:54.359Z,31.30
2019-04-20T10:27:26.460Z,31.10
2019-04-20T10:30:16.687Z,30.40
2019-04-20T10:32:50.575Z,30.50
2019-04-20T10:35:18.876Z,29.70
2019-04-20T10:37:58.115Z,29.30
2019-04-20T10:40:42.705Z,28.70
2019-04-20T10:43:01.527Z,27.80
2019-04-20T10:45:32.984Z,27.20
2019-04-20T10:48:03.473Z,26.70
2019-04-20T10:50:34.741Z,26.40
2019-04-20T10:53:05.752Z,26.50
2019-04-20T10:55:37.716Z,26.20
2019-04-20T10:58:09.291Z,25.90
2019-04-20T11:00:42.013Z,25.70
2019-04-20T11:03:13.582Z,25.80
2019-04-20T11:05:44.635Z,25.90
2019-04-20T11:08:15.082Z,25.70
2019-04-20T11:10:59.031Z,25.60
2019-04-20T11:13:19.356Z,25.60
2019-04-20T11:15:50.546Z,25.60
2019-04-20T11:18:21.774Z,25.60
2019-04-20T11:20:53.196Z,25.70
2019-04-20T11:23:24.405Z,25.60
2019-04-20T11:25:55.931Z,25.40
2019-04-20T11:28:26.249Z,25.50
2019-04-20T11:30:56.381Z,25.40
2019-04-20T11:33:27.803Z,25.20
2019-04-20T11:35:59.154Z,25.30
2019-04-20T11:38:30.199Z,25.40
2019-04-20T11:41:10.177Z,25.40
2019-04-20T11:43:33.524Z,25.60
2019-04-20T11:46:04.797Z,25.70
2019-04-20T11:48:37.207Z,25.70
2019-04-20T11:51:07.599Z,25.70
2019-04-20T11:53:38.722Z,25.90
2019-04-20T11:56:14.442Z,25.80
2019-04-20T11:58:41.093Z,26.00
2019-04-20T12:01:49.501Z,25.90
2019-04-20T12:04:26.079Z,25.90
2019-04-20T12:06:48.745Z,25.80
2019-04-20T12:09:19.130Z,25.70
2019-04-20T12:12:04.133Z,25.60
2019-04-20T12:14:20.929Z,25.70
2019-04-20T12:16:50.951Z,25.80
2019-04-20T12:19:22.928Z,25.80
2019-04-20T12:21:53.880Z,25.80
2019-04-20T12:24:24.622Z,25.70
2019-04-20T12:26:54.799Z,25.90
2019-04-20T12:29:25.824Z,25.90
2019-04-20T12:32:01.235Z,26.00
2019-04-20T12:34:28.709Z,26.00
2019-04-20T12:37:00.739Z,26.00
2019-04-20T12:39:31.266Z,26.20
2019-04-20T12:42:04.498Z,26.30
2019-04-20T12:44:33.220Z,26.30
2019-04-20T12:47:03.694Z,26.20
2019-04-20T12:49:33.971Z,26.30
2019-04-20T12:52:06.435Z,26.40
2019-04-20T12:54:36.874Z,26.60
2019-04-20T12:57:08.926Z,26.50
2019-04-20T12:59:39.575Z,26.50
2019-04-20T13:02:13.440Z,26.50
2019-04-20T13:04:43.825Z,26.60
2019-04-20T13:07:15.517Z,26.80
2019-04-20T13:09:50.812Z,26.60
2019-04-20T13:12:34.318Z,26.80
2019-04-20T13:15:20.284Z,26.80
2019-04-20T13:17:52.498Z,26.80
2019-04-20T13:20:23.595Z,26.90
2019-04-20T13:22:55.008Z,26.90
2019-04-20T13:25:26.300Z,26.90
2019-04-20T13:27:56.905Z,27.00
2019-04-20T13:30:27.988Z,26.80
2019-04-20T13:32:59.342Z,26.60
2019-04-20T13:35:30.074Z,26.40
2019-04-20T13:38:00.338Z,26.50
2019-04-20T13:40:31.216Z,26.70
2019-04-20T13:43:01.707Z,26.90
2019-04-20T13:45:32.961Z,26.90
2019-04-20T13:48:04.349Z,26.70
2019-04-20T13:50:35.914Z,26.70
2019-04-20T13:53:07.165Z,26.70
2019-04-20T13:55:37.989Z,26.60
2019-04-20T13:58:13.900Z,26.40
2019-04-20T14:01:06.184Z,26.50
2019-04-20T14:03:36.669Z,26.60
2019-04-20T14:06:06.941Z,26.40
2019-04-20T14:08:39.083Z,26.60
2019-04-20T14:11:09.568Z,26.60
2019-04-20T14:13:45.320Z,26.80
2019-04-20T14:16:14.265Z,27.00
2019-04-20T14:18:45.017Z,26.90
2019-04-20T14:21:16.372Z,27.00
2019-04-20T14:23:46.618Z,26.70
2019-04-20T14:26:16.806Z,26.40
2019-04-20T14:28:47.092Z,26.40
2019-04-20T14:31:17.257Z,26.50
2019-04-20T14:33:48.719Z,26.60
2019-04-20T14:36:19.147Z,26.60
2019-04-20T14:38:49.918Z,26.60
2019-04-20T14:41:20.340Z,26.40
2019-04-20T14:43:51.244Z,26.50
2019-04-20T14:46:22.901Z,26.60
2019-04-20T14:48:54.509Z,26.60
2019-04-20T14:51:25.801Z,26.60
2019-04-20T14:53:56.159Z,26.70
2019-04-20T14:56:27.386Z,26.50
2019-04-20T14:59:05.162Z,26.50
2019-04-20T15:01:42.694Z,26.40
2019-04-20T15:04:17.809Z,26.40
2019-04-20T15:06:44.932Z,26.50
2019-04-20T15:09:15.063Z,26.40
2019-04-20T15:11:46.520Z,26.50
2019-04-20T15:14:16.871Z,26.60
2019-04-20T15:16:47.148Z,26.60
2019-04-20T15:19:23.464Z,26.70
2019-04-20T15:21:55.761Z,26.50
2019-04-20T15:24:27.271Z,26.40
2019-04-20T15:26:58.358Z,26.40
2019-04-20T15:29:28.641Z,26.40
2019-04-20T15:31:59.907Z,26.30
2019-04-20T15:34:30.919Z,26.30
2019-04-20T15:37:02.367Z,26.40
2019-04-20T15:39:32.947Z,26.30
2019-04-20T15:42:03.387Z,26.30
2019-04-20T15:44:33.574Z,26.40
2019-04-20T15:47:04.204Z,26.50
2019-04-20T15:49:35.756Z,26.40
2019-04-20T15:52:06.095Z,26.30
2019-04-20T15:54:37.832Z,26.30
2019-04-20T15:57:14.536Z,26.30
2019-04-20T15:59:40.220Z,26.30
2019-04-20T16:02:36.723Z,26.30
2019-04-20T16:05:33.233Z,26.30
2019-04-20T16:08:21.543Z,26.10
2019-04-20T16:10:53.110Z,26.00
2019-04-20T16:13:32.111Z,25.80
2019-04-20T16:15:56.349Z,25.80
2019-04-20T16:18:27.698Z,25.70
2019-04-20T16:21:05.555Z,25.60
2019-04-20T16:23:34.577Z,25.40
2019-04-20T16:26:39.892Z,25.20
2019-04-20T16:29:11.390Z,25.10
2019-04-20T16:31:44.026Z,24.90
2019-04-20T16:34:13.763Z,24.90
2019-04-20T16:36:44.482Z,24.80
2019-04-20T16:39:18.683Z,24.70
2019-04-20T16:41:48.814Z,24.70
2019-04-20T16:44:18.855Z,24.70
2019-04-20T16:46:50.177Z,24.70
2019-04-20T16:49:21.260Z,24.70
2019-04-20T16:51:52.635Z,24.70
2019-04-20T16:54:23.709Z,24.70
2019-04-20T16:56:54.865Z,24.80
2019-04-20T16:59:25.160Z,24.80
2019-04-20T17:01:56.179Z,24.70
2019-04-20T17:04:26.923Z,24.70
2019-04-20T17:07:16.595Z,24.70
2019-04-20T17:09:47.519Z,24.70
2019-04-20T17:12:17.812Z,24.80
2019-04-20T17:14:49.504Z,24.90
2019-04-20T17:17:19.914Z,24.70
2019-04-20T17:19:51.393Z,24.70
2019-04-20T17:22:21.736Z,24.70
2019-04-20T17:24:51.900Z,24.50
2019-04-20T17:27:49.323Z,24.50
2019-04-20T17:30:59.169Z,24.40
2019-04-20T17:33:50.529Z,24.30
2019-04-20T17:36:18.531Z,24.10
2019-04-20T17:38:48.477Z,24.00
2019-04-20T17:41:36.248Z,23.90
2019-04-20T17:44:06.699Z,23.70
2019-04-20T17:46:32.380Z,23.50
2019-04-20T17:49:05.569Z,23.40
2019-04-20T17:51:39.620Z,23.30
2019-04-20T17:54:22.099Z,23.10
2019-04-20T17:56:53.949Z,23.00
2019-04-20T17:59:26.063Z,22.80
2019-04-20T18:02:25.496Z,22.70
2019-04-20T18:07:46.295Z,22.30
2019-04-20T18:10:17.466Z,22.10
2019-04-20T18:12:40.963Z,21.90
2019-04-20T18:15:24.305Z,21.90
2019-04-20T18:18:24.532Z,21.90
2019-04-20T18:20:45.342Z,21.80
2019-04-20T18:23:16.387Z,21.60
2019-04-20T18:26:16.030Z,21.60
2019-04-20T18:28:32.669Z,21.40
2019-04-20T18:31:03.699Z,21.30
2019-04-20T18:33:34.902Z,21.30
2019-04-20T18:36:03.332Z,21.20
2019-04-20T18:38:39.338Z,21.00
2019-04-20T18:41:09.309Z,20.90
2019-04-20T18:43:43.946Z,20.70
2019-04-20T18:46:26.071Z,20.40
2019-04-20T18:49:01.075Z,20.40
2019-04-20T18:51:12.644Z,20.20
2019-04-20T18:53:46.358Z,20.20
2019-04-20T18:56:17.877Z,20.10
2019-04-20T18:58:47.029Z,20.00
2019-04-20T19:01:17.291Z,19.80
2019-04-20T19:03:48.725Z,19.70
2019-04-20T19:06:21.085Z,19.60
2019-04-20T19:08:52.514Z,19.50
2019-04-20T19:11:24.944Z,19.50
2019-04-20T19:14:28.552Z,19.50
2019-04-20T19:17:05.813Z,19.40
2019-04-20T19:19:37.555Z,19.40
2019-04-20T19:22:00.110Z,19.40
2019-04-20T19:24:33.558Z,19.30
2019-04-20T19:27:07.830Z,19.30
2019-04-20T19:29:39.169Z,19.10
2019-04-20T19:32:23.874Z,19.10
2019-04-20T19:34:50.080Z,19.10
2019-04-20T19:37:17.149Z,19.10
2019-04-20T19:39:53.249Z,18.90
2019-04-20T19:42:28.662Z,18.90
2019-04-20T19:45:06.582Z,18.80
2019-04-20T19:47:41.342Z,18.80
2019-04-20T19:50:22.035Z,18.80
2019-04-20T19:52:45.518Z,18.80
2019-04-20T19:55:11.794Z,18.70
2019-04-20T19:57:42.141Z,18.60
2019-04-20T19:59:58.171Z,18.60
2019-04-20T20:02:28.004Z,18.60
2019-04-20T20:05:04.078Z,18.60
2019-04-20T20:07:37.487Z,18.60
2019-04-20T20:10:06.930Z,18.60
2019-04-20T20:12:33.752Z,18.50
2019-04-20T20:15:06.423Z,18.50
2019-04-20T20:17:54.283Z,18.40
2019-04-20T20:20:30.383Z,18.20
2019-04-20T20:22:45.126Z,18.00
2019-04-20T20:25:12.857Z,17.90
2019-04-20T20:27:50.301Z,17.90
2019-04-20T20:30:25.478Z,17.90
2019-04-20T20:33:05.959Z,17.90
2019-04-20T20:35:25.000Z,17.90
2019-04-20T20:37:57.058Z,17.90
2019-04-20T20:40:29.930Z,17.70
2019-04-20T20:43:09.747Z,17.70
2019-04-20T20:45:33.534Z,17.70
2019-04-20T20:48:18.265Z,17.60
2019-04-20T20:50:48.886Z,17.40
2019-04-20T20:53:12.450Z,17.30
2019-04-20T20:55:40.710Z,17.10
2019-04-20T20:58:12.779Z,17.10
2019-04-20T21:00:51.620Z,17.00
2019-04-20T21:03:20.398Z,16.80
2019-04-20T21:05:41.882Z,16.70
2019-04-20T21:08:13.572Z,16.70
2019-04-20T21:10:45.694Z,16.70
2019-04-20T21:13:15.624Z,16.60
2019-04-20T21:15:53.913Z,16.50
2019-04-20T21:18:41.057Z,16.40
2019-04-20T21:21:06.268Z,16.30
2019-04-20T21:23:33.415Z,16.20
2019-04-20T21:26:12.777Z,16.20
2019-04-20T21:28:41.990Z,16.20
2019-04-20T21:31:16.833Z,16.10
2019-04-20T21:33:44.869Z,16.00
2019-04-20T21:36:19.226Z,15.90
2019-04-20T21:38:48.279Z,15.80
2019-04-20T21:41:21.622Z,15.70
2019-04-20T21:43:51.765Z,15.60
2019-04-20T21:46:22.845Z,15.50
2019-04-20T21:49:05.627Z,15.50
2019-04-20T21:51:37.024Z,15.60
2019-04-20T21:53:58.712Z,15.60
2019-04-20T21:56:28.592Z,15.50
2019-04-20T21:59:03.661Z,15.40
2019-04-20T22:01:37.693Z,15.30
2019-04-20T22:04:02.679Z,15.30
2019-04-20T22:06:34.255Z,15.20
2019-04-20T22:09:09.079Z,15.10
2019-04-20T22:11:42.036Z,15.10
2019-04-20T22:14:18.573Z,15.00
2019-04-20T22:16:49.546Z,15.00
2019-04-20T22:19:30.703Z,14.90
2019-04-20T22:22:00.586Z,14.90
2019-04-20T22:24:41.399Z,14.80
2019-04-20T22:27:05.115Z,14.80
2019-04-20T22:29:26.001Z,14.70
2019-04-20T22:32:02.778Z,14.70
2019-04-20T22:34:29.692Z,14.60
2019-04-20T22:37:02.141Z,14.60
2019-04-20T22:39:41.411Z,14.50
2019-04-20T22:42:11.324Z,14.50
2019-04-20T22:44:39.239Z,14.50
2019-04-20T22:47:14.625Z,14.40
2019-04-20T22:50:06.823Z,14.50
2019-04-20T22:52:32.552Z,14.60
2019-04-20T22:55:00.700Z,14.50
2019-04-20T22:57:33.425Z,14.50
2019-04-20T22:59:58.035Z,14.50
2019-04-20T23:02:23.094Z,14.40
2019-04-20T23:04:53.204Z,14.30
2019-04-20T23:07:23.456Z,14.30
2019-04-20T23:09:56.498Z,14.20
2019-04-20T23:12:26.902Z,14.30
2019-04-20T23:14:58.442Z,14.40
2019-04-20T23:17:36.056Z,14.60
2019-04-20T23:20:03.228Z,14.60
2019-04-20T23:22:36.867Z,14.70
2019-04-20T23:25:04.948Z,14.60
2019-04-20T23:27:36.819Z,14.60
2019-04-20T23:30:14.673Z,14.80
2019-04-20T23:32:39.917Z,14.80
2019-04-20T23:35:16.737Z,14.70
2019-04-20T23:37:45.054Z,14.60
2019-04-20T23:40:16.710Z,14.50
2019-04-20T23:42:51.766Z,14.40
2019-04-20T23:45:45.558Z,14.30
2019-04-20T23:48:18.425Z,14.20
2019-04-20T23:51:05.071Z,14.10
2019-04-20T23:53:39.439Z,14.00
2019-04-20T23:55:52.085Z,13.80
2019-04-20T23:58:22.160Z,13.70
